createdAt,value
2022-09-30T00:01:59.859Z,17.33
2022-09-30T00:04:29.107Z,16.90
2022-09-30T00:06:58.493Z,17.75
2022-09-30T00:09:27.612Z,19.80
2022-09-30T00:11:56.761Z,19.05
2022-09-30T00:14:26.351Z,21.88
2022-09-30T00:16:55.436Z,19.73
2022-09-30T00:19:25.898Z,19.35
2022-09-30T00:21:55.320Z,19.85
2022-09-30T00:24:24.553Z,18.33
2022-09-30T00:26:53.668Z,17.15
2022-09-30T00:29:22.848Z,16.08
2022-09-30T00:31:51.941Z,19.15
2022-09-30T00:34:21.261Z,18.33
2022-09-30T00:36:53.456Z,19.13
2022-09-30T00:39:24.267Z,16.58
2022-09-30T00:41:56.601Z,18.08
2022-09-30T00:44:54.000Z,18.08
2022-09-30T00:47:37.208Z,18.90
2022-09-30T00:50:26.535Z,16.83
2022-09-30T00:53:03.105Z,16.17
2022-09-30T00:55:39.317Z,17.70
2022-09-30T00:58:13.746Z,15.32
2022-09-30T01:00:43.454Z,14.95
2022-09-30T01:03:13.206Z,19.88
2022-09-30T01:05:42.688Z,17.70
2022-09-30T01:08:13.758Z,19.67
2022-09-30T01:10:43.251Z,22.00
2022-09-30T01:13:15.104Z,17.50
2022-09-30T01:15:59.811Z,20.48
2022-09-30T01:18:42.990Z,19.55
2022-09-30T01:21:36.260Z,27.23
2022-09-30T01:24:47.798Z,25.65
2022-09-30T01:27:49.993Z,21.13
2022-09-30T01:30:22.256Z,23.33
2022-09-30T01:33:21.796Z,23.23
2022-09-30T01:36:16.744Z,19.08
2022-09-30T01:38:55.318Z,22.08
2022-09-30T01:41:28.956Z,21.15
2022-09-30T01:44:05.807Z,19.27
2022-09-30T01:46:38.695Z,25.35
2022-09-30T01:49:18.523Z,22.15
2022-09-30T01:51:56.047Z,20.98
2022-09-30T01:54:32.043Z,15.93
2022-09-30T01:57:07.493Z,19.25
2022-09-30T01:59:42.669Z,20.77
2022-09-30T02:02:18.315Z,19.48
2022-09-30T02:04:53.528Z,15.65
2022-09-30T02:07:27.908Z,17.23
2022-09-30T02:10:01.550Z,19.98
2022-09-30T02:12:38.867Z,19.35
2022-09-30T02:15:12.800Z,16.88
2022-09-30T02:17:49.028Z,16.35
2022-09-30T02:20:24.317Z,14.70
2022-09-30T02:23:01.621Z,19.67
2022-09-30T02:25:36.372Z,15.35
2022-09-30T02:28:09.452Z,13.15
2022-09-30T02:38:28.080Z,14.93
2022-09-30T02:41:02.416Z,21.05
2022-09-30T02:43:32.719Z,14.00
2022-09-30T02:46:09.365Z,16.00
2022-09-30T02:48:45.436Z,17.25
2022-09-30T02:51:21.024Z,12.93
2022-09-30T02:53:58.276Z,17.75
2022-09-30T02:56:38.807Z,12.82
2022-09-30T02:59:08.436Z,17.17
2022-09-30T03:01:41.982Z,14.13
2022-09-30T03:04:15.405Z,14.75
2022-09-30T03:06:46.121Z,11.18
2022-09-30T03:09:15.761Z,13.90
2022-09-30T03:11:45.029Z,17.67
2022-09-30T03:14:35.113Z,9.20
2022-09-30T03:17:39.040Z,14.70
2022-09-30T03:20:24.636Z,14.05
2022-09-30T03:23:19.535Z,14.70
2022-09-30T03:25:58.258Z,11.82
2022-09-30T03:28:32.133Z,11.82
2022-09-30T03:31:10.845Z,10.07
2022-09-30T03:33:50.495Z,12.27
2022-09-30T03:36:28.044Z,11.75
2022-09-30T03:39:04.940Z,13.40
2022-09-30T03:41:40.722Z,17.23
2022-09-30T03:44:16.788Z,13.90
2022-09-30T03:46:50.499Z,13.32
2022-09-30T03:49:25.354Z,9.90
2022-09-30T03:51:58.652Z,15.32
2022-09-30T03:54:29.768Z,13.45
2022-09-30T03:57:03.619Z,12.40
2022-09-30T03:59:33.183Z,13.60
2022-09-30T04:02:03.797Z,12.57
2022-09-30T04:04:33.580Z,10.93
2022-09-30T04:07:02.607Z,11.57
2022-09-30T04:09:33.177Z,9.35
2022-09-30T04:12:02.894Z,11.52
2022-09-30T04:14:32.138Z,14.90
2022-09-30T04:17:01.302Z,13.80
2022-09-30T04:19:30.853Z,13.27
2022-09-30T04:22:00.516Z,13.63
2022-09-30T04:24:29.506Z,11.38
2022-09-30T04:27:00.384Z,14.25
2022-09-30T04:29:29.661Z,16.20
2022-09-30T04:31:59.246Z,14.95
2022-09-30T04:34:28.473Z,11.80
2022-09-30T04:36:57.559Z,18.38
2022-09-30T04:39:26.898Z,12.07
2022-09-30T04:41:56.189Z,14.52
2022-09-30T04:44:26.650Z,14.85
2022-09-30T04:46:56.072Z,14.15
2022-09-30T04:49:25.377Z,13.88
2022-09-30T04:51:54.549Z,14.98
2022-09-30T04:54:24.370Z,16.45
2022-09-30T04:56:53.456Z,14.25
2022-09-30T04:59:22.623Z,13.05
2022-09-30T05:01:53.394Z,15.48
2022-09-30T05:04:22.499Z,17.55
2022-09-30T05:06:51.753Z,17.63
2022-09-30T05:09:21.235Z,19.70
2022-09-30T05:11:50.706Z,13.48
2022-09-30T05:14:20.030Z,14.35
2022-09-30T05:16:49.445Z,13.50
2022-09-30T05:19:20.052Z,13.23
2022-09-30T05:21:49.638Z,11.18
2022-09-30T05:24:19.055Z,17.30
2022-09-30T05:26:48.178Z,13.35
2022-09-30T05:29:17.144Z,19.60
2022-09-30T05:31:46.473Z,14.50
2022-09-30T05:34:16.904Z,17.88
2022-09-30T05:36:48.423Z,17.75
2022-09-30T05:39:17.903Z,17.33
2022-09-30T05:41:47.732Z,21.42
2022-09-30T05:44:16.754Z,14.13
2022-09-30T05:46:46.264Z,21.17
2022-09-30T05:49:15.625Z,18.80
2022-09-30T05:51:46.153Z,16.08
2022-09-30T05:54:15.571Z,21.40
2022-09-30T05:56:44.690Z,20.45
2022-09-30T05:59:13.822Z,23.20
2022-09-30T06:01:43.084Z,15.63
2022-09-30T06:04:12.247Z,18.65
2022-09-30T06:06:41.830Z,20.90
2022-09-30T06:09:12.408Z,18.90
2022-09-30T06:11:42.962Z,23.30
2022-09-30T06:14:12.346Z,19.75
2022-09-30T06:16:42.015Z,17.45
2022-09-30T06:19:11.250Z,18.67
2022-09-30T06:21:40.464Z,15.50
2022-09-30T06:24:13.244Z,19.45
2022-09-30T06:26:44.978Z,20.63
2022-09-30T06:29:14.703Z,23.25
2022-09-30T06:31:44.070Z,19.73
2022-09-30T06:34:13.800Z,19.70
2022-09-30T06:36:42.812Z,16.45
2022-09-30T06:39:13.801Z,21.50
2022-09-30T06:41:44.728Z,19.48
2022-09-30T06:44:26.856Z,14.77
2022-09-30T06:46:56.620Z,18.00
2022-09-30T06:49:28.761Z,15.82
2022-09-30T06:52:01.153Z,12.85
2022-09-30T06:54:34.636Z,15.75
2022-09-30T06:57:05.384Z,12.75
2022-09-30T06:59:34.794Z,14.10
2022-09-30T07:02:04.138Z,11.73
2022-09-30T07:04:33.466Z,13.68
2022-09-30T07:07:03.200Z,12.60
2022-09-30T07:09:32.599Z,11.90
2022-09-30T07:12:01.876Z,14.65
2022-09-30T07:14:32.807Z,16.38
2022-09-30T07:17:04.370Z,12.77
2022-09-30T07:19:34.753Z,14.07
2022-09-30T07:22:18.336Z,14.82
2022-09-30T07:24:47.510Z,15.18
2022-09-30T07:27:16.952Z,17.02
2022-09-30T07:30:08.082Z,18.25
2022-09-30T07:32:38.579Z,14.40
2022-09-30T07:35:10.433Z,15.52
2022-09-30T07:37:40.818Z,15.07
2022-09-30T07:40:11.383Z,18.35
2022-09-30T07:42:46.103Z,17.17
2022-09-30T07:45:19.582Z,15.88
2022-09-30T07:47:53.535Z,14.63
2022-09-30T07:50:23.786Z,15.07
2022-09-30T07:52:56.491Z,10.52
2022-09-30T07:55:26.111Z,16.30
2022-09-30T07:57:55.340Z,16.23
2022-09-30T08:00:42.908Z,12.25
2022-09-30T08:03:13.142Z,14.52
2022-09-30T08:05:44.771Z,12.05
2022-09-30T08:08:14.634Z,13.85
2022-09-30T08:10:44.013Z,11.98
2022-09-30T08:13:14.914Z,11.63
2022-09-30T08:15:46.019Z,13.00
2022-09-30T08:18:15.460Z,12.90
2022-09-30T08:20:44.696Z,9.77
2022-09-30T08:23:14.157Z,12.90
2022-09-30T08:25:43.345Z,9.57
2022-09-30T08:28:12.753Z,9.05
2022-09-30T08:30:42.539Z,5.88
2022-09-30T08:33:14.177Z,6.03
2022-09-30T08:35:43.492Z,6.07
2022-09-30T08:38:12.767Z,4.82
2022-09-30T08:40:59.284Z,5.93
2022-09-30T08:43:40.440Z,5.63
2022-09-30T08:46:18.794Z,8.65
2022-09-30T08:49:03.508Z,6.35
2022-09-30T08:51:37.838Z,6.85
2022-09-30T08:54:12.983Z,8.27
2022-09-30T08:56:44.302Z,5.80
2022-09-30T08:59:23.344Z,7.40
2022-09-30T09:01:59.933Z,8.07
2022-09-30T09:04:30.777Z,6.93
2022-09-30T09:07:08.082Z,9.27
2022-09-30T09:09:53.633Z,8.27
2022-09-30T09:12:33.279Z,7.57
2022-09-30T09:15:31.048Z,8.60
2022-09-30T09:18:38.437Z,4.57
2022-09-30T09:21:30.051Z,4.55
2022-09-30T09:24:02.678Z,7.03
2022-09-30T09:26:38.325Z,3.97
2022-09-30T09:29:24.505Z,4.25
2022-09-30T09:31:54.949Z,3.42
2022-09-30T09:34:28.306Z,3.30
2022-09-30T09:37:12.659Z,4.53
2022-09-30T09:40:05.008Z,7.57
2022-09-30T09:42:54.507Z,3.30
2022-09-30T09:45:32.476Z,3.95
2022-09-30T09:48:02.098Z,3.30
2022-09-30T09:50:42.522Z,3.33
2022-09-30T09:53:45.361Z,3.55
2022-09-30T09:56:22.187Z,2.35
2022-09-30T09:59:10.536Z,2.47
2022-09-30T10:01:42.154Z,2.20
2022-09-30T10:04:16.588Z,2.10
2022-09-30T10:06:55.843Z,2.60
2022-09-30T10:09:28.481Z,2.70
2022-09-30T10:12:30.069Z,2.03
2022-09-30T10:15:14.815Z,2.33
2022-09-30T10:17:44.645Z,1.90
2022-09-30T10:20:29.347Z,1.15
2022-09-30T10:23:11.319Z,1.58
2022-09-30T10:25:40.646Z,1.40
2022-09-30T10:28:26.149Z,1.30
2022-09-30T10:30:59.169Z,1.38
2022-09-30T10:33:32.966Z,1.20
2022-09-30T10:36:15.473Z,1.40
2022-09-30T10:38:53.935Z,2.22
2022-09-30T10:41:26.446Z,1.77
2022-09-30T10:44:00.330Z,1.90
2022-09-30T10:46:33.104Z,3.22
2022-09-30T10:49:08.689Z,1.60
2022-09-30T10:51:38.147Z,1.65
2022-09-30T10:54:08.378Z,1.80
2022-09-30T10:56:44.235Z,2.22
2022-09-30T10:59:31.535Z,3.67
2022-09-30T11:05:04.257Z,2.85
2022-09-30T11:07:41.634Z,2.10
2022-09-30T11:10:32.802Z,2.42
2022-09-30T11:13:08.885Z,3.63
2022-09-30T11:15:46.603Z,2.20
2022-09-30T11:18:22.577Z,1.83
2022-09-30T11:20:59.337Z,1.90
2022-09-30T11:23:33.944Z,2.03
2022-09-30T11:26:10.498Z,2.63
2022-09-30T11:29:07.254Z,3.35
2022-09-30T11:31:44.196Z,2.50
2022-09-30T11:34:32.723Z,2.22
2022-09-30T11:37:08.250Z,3.10
2022-09-30T11:40:05.045Z,2.80
2022-09-30T11:42:47.244Z,2.40
2022-09-30T11:45:29.217Z,2.78
2022-09-30T11:48:18.495Z,3.08
2022-09-30T11:51:02.034Z,3.83
2022-09-30T11:53:43.139Z,4.13
2022-09-30T11:56:26.512Z,4.32
2022-09-30T11:59:01.596Z,4.13
2022-09-30T12:01:34.865Z,3.83
2022-09-30T12:04:10.976Z,3.70
2022-09-30T12:06:45.937Z,3.33
2022-09-30T12:09:22.988Z,3.45
2022-09-30T12:11:58.047Z,2.95
2022-09-30T12:17:04.280Z,3.40
2022-09-30T12:19:41.308Z,4.57
2022-09-30T12:22:16.916Z,3.60
2022-09-30T12:24:47.288Z,3.63
2022-09-30T12:27:22.696Z,3.95
2022-09-30T12:30:18.006Z,2.97
2022-09-30T12:33:20.993Z,1.85
2022-09-30T12:36:17.833Z,3.10
2022-09-30T12:39:22.181Z,2.60
2022-09-30T12:42:07.581Z,1.83
2022-09-30T12:45:00.647Z,2.28
2022-09-30T12:47:45.910Z,1.88
2022-09-30T12:50:19.093Z,2.28
2022-09-30T12:52:51.029Z,2.13
2022-09-30T12:55:31.233Z,2.03
2022-09-30T12:58:02.570Z,2.17
2022-09-30T13:00:34.982Z,1.95
2022-09-30T13:03:09.153Z,2.80
2022-09-30T13:06:06.491Z,2.05
2022-09-30T13:08:45.911Z,1.88
2022-09-30T13:11:37.426Z,2.05
2022-09-30T13:14:26.605Z,1.77
2022-09-30T13:17:25.563Z,2.17
2022-09-30T13:19:57.510Z,1.20
2022-09-30T13:22:58.169Z,1.25
2022-09-30T13:25:28.899Z,0.95
2022-09-30T13:28:30.789Z,1.48
2022-09-30T13:31:19.299Z,1.95
2022-09-30T13:34:06.605Z,1.40
2022-09-30T13:36:42.984Z,6.22
2022-09-30T13:39:26.715Z,2.67
2022-09-30T13:42:08.490Z,3.45
2022-09-30T13:44:45.918Z,1.60
2022-09-30T13:47:27.371Z,1.65
2022-09-30T13:50:04.030Z,1.70
2022-09-30T13:52:38.243Z,1.33
2022-09-30T13:55:16.233Z,1.50
2022-09-30T13:57:57.503Z,1.30
2022-09-30T14:00:48.620Z,1.15
2022-09-30T14:03:41.675Z,2.15
2022-09-30T14:06:23.156Z,1.50
2022-09-30T14:09:08.758Z,1.45
2022-09-30T14:12:14.824Z,1.48
2022-09-30T14:15:11.658Z,1.83
2022-09-30T14:17:55.896Z,1.85
2022-09-30T14:20:40.490Z,1.90
2022-09-30T14:23:15.695Z,2.33
2022-09-30T14:25:52.533Z,2.05
2022-09-30T14:28:32.716Z,3.97
2022-09-30T14:31:13.295Z,1.80
2022-09-30T14:33:47.842Z,1.98
2022-09-30T14:36:20.474Z,2.17
2022-09-30T14:39:02.377Z,3.47
2022-09-30T14:41:41.300Z,2.30
2022-09-30T14:44:17.968Z,3.10
2022-09-30T14:46:51.274Z,3.05
2022-09-30T14:49:30.428Z,2.80
2022-09-30T14:52:03.254Z,2.90
2022-09-30T14:54:34.338Z,3.28
2022-09-30T14:57:16.765Z,2.92
2022-09-30T14:59:45.759Z,3.70
2022-09-30T15:02:20.419Z,4.07
2022-09-30T15:04:53.993Z,3.83
2022-09-30T15:07:24.785Z,4.45
2022-09-30T15:09:53.865Z,4.13
2022-09-30T15:12:25.472Z,2.80
2022-09-30T15:14:57.505Z,3.10
2022-09-30T15:17:30.379Z,2.55
2022-09-30T15:20:00.914Z,3.45
2022-09-30T15:22:31.702Z,2.00
2022-09-30T15:25:01.612Z,2.55
2022-09-30T15:27:33.232Z,2.35
2022-09-30T15:30:05.452Z,2.88
2022-09-30T15:32:38.558Z,3.37
2022-09-30T15:35:13.575Z,3.78
2022-09-30T15:37:43.755Z,4.85
2022-09-30T15:40:34.493Z,3.45
2022-09-30T15:43:08.244Z,4.07
2022-09-30T15:45:39.589Z,6.80
2022-09-30T15:48:36.232Z,5.28
2022-09-30T15:51:26.199Z,6.13
2022-09-30T15:54:00.748Z,10.40
2022-09-30T15:56:36.278Z,11.43
2022-09-30T15:59:07.947Z,13.40
2022-09-30T16:01:40.469Z,13.93
2022-09-30T16:04:15.614Z,12.85
2022-09-30T16:06:48.459Z,17.83
2022-09-30T16:09:24.148Z,14.05
2022-09-30T16:12:05.422Z,17.25
2022-09-30T16:14:43.877Z,15.05
2022-09-30T16:17:20.645Z,15.95
2022-09-30T16:19:56.084Z,18.02
2022-09-30T16:22:51.880Z,13.10
2022-09-30T16:25:24.459Z,12.07
2022-09-30T16:27:59.378Z,12.18
2022-09-30T16:30:30.129Z,17.38
2022-09-30T16:33:04.397Z,24.13
2022-09-30T16:35:35.510Z,11.35
2022-09-30T16:38:07.201Z,13.85
2022-09-30T16:40:38.257Z,10.43
2022-09-30T16:43:11.845Z,14.48
2022-09-30T16:45:42.721Z,12.38
2022-09-30T16:48:16.905Z,9.52
2022-09-30T16:50:51.731Z,9.20
2022-09-30T16:53:22.139Z,13.73
2022-09-30T16:55:52.464Z,9.25
2022-09-30T16:58:22.039Z,9.38
2022-09-30T17:00:51.915Z,13.88
2022-09-30T17:03:23.357Z,14.15
2022-09-30T17:05:54.331Z,14.50
2022-09-30T17:08:24.938Z,18.00
2022-09-30T17:10:58.069Z,16.33
2022-09-30T17:13:30.192Z,15.65
2022-09-30T17:16:02.102Z,26.42
2022-09-30T17:18:31.516Z,25.30
2022-09-30T17:21:02.684Z,27.55
2022-09-30T17:23:31.872Z,28.90
2022-09-30T17:26:05.196Z,37.38
2022-09-30T17:28:35.182Z,27.75
2022-09-30T17:31:05.173Z,38.72
2022-09-30T17:33:36.174Z,37.10
2022-09-30T17:36:11.961Z,42.15
2022-09-30T17:38:41.679Z,54.47
2022-09-30T17:41:31.974Z,48.05
2022-09-30T17:44:02.720Z,34.92
2022-09-30T17:46:43.159Z,36.17
2022-09-30T17:49:13.049Z,40.65
2022-09-30T17:51:44.410Z,47.05
2022-09-30T17:54:13.472Z,39.75
2022-09-30T17:56:43.918Z,41.13
2022-09-30T17:59:14.936Z,37.47
2022-09-30T18:01:44.463Z,41.38
2022-09-30T18:04:13.809Z,37.25
2022-09-30T18:06:46.510Z,38.20
2022-09-30T18:09:15.954Z,31.98
2022-09-30T18:11:45.277Z,39.35
2022-09-30T18:14:14.894Z,40.65
2022-09-30T18:16:45.206Z,32.03
2022-09-30T18:21:50.482Z,46.72
2022-09-30T18:24:40.182Z,39.40
2022-09-30T18:27:09.709Z,46.03
2022-09-30T18:29:40.526Z,40.22
2022-09-30T18:32:10.206Z,34.13
2022-09-30T18:34:39.510Z,34.40
2022-09-30T18:37:10.471Z,39.67
2022-09-30T18:39:40.151Z,60.40
2022-09-30T18:42:10.161Z,48.03
2022-09-30T18:44:39.229Z,99.20
2022-09-30T18:47:08.684Z,73.35
2022-09-30T18:49:38.267Z,59.10
2022-09-30T18:52:11.207Z,49.88
2022-09-30T18:54:41.947Z,44.38
2022-09-30T18:57:11.206Z,51.75
2022-09-30T18:59:40.271Z,52.10
2022-09-30T19:02:11.770Z,49.13
2022-09-30T19:04:40.898Z,51.33
2022-09-30T19:07:10.105Z,49.60
2022-09-30T19:09:41.280Z,51.63
2022-09-30T19:12:13.532Z,51.60
2022-09-30T19:14:44.665Z,59.70
2022-09-30T19:17:15.300Z,68.40
2022-09-30T19:19:46.819Z,55.15
2022-09-30T19:22:16.191Z,51.70
2022-09-30T19:24:47.764Z,48.97
2022-09-30T19:27:17.478Z,53.08
2022-09-30T19:29:49.055Z,47.13
2022-09-30T19:32:19.054Z,51.75
2022-09-30T19:35:00.453Z,47.22
2022-09-30T19:37:35.894Z,46.45
2022-09-30T19:40:19.942Z,43.38
2022-09-30T19:45:25.698Z,46.03
2022-09-30T19:47:59.734Z,45.00
2022-09-30T19:50:30.035Z,40.80
2022-09-30T19:53:01.954Z,41.40
2022-09-30T19:55:44.997Z,39.15
2022-09-30T19:58:18.773Z,40.75
2022-09-30T20:00:56.443Z,44.80
2022-09-30T20:03:26.713Z,42.22
2022-09-30T20:06:01.186Z,35.30
2022-09-30T20:08:31.320Z,37.43
2022-09-30T20:11:06.410Z,35.20
2022-09-30T20:13:38.509Z,36.58
2022-09-30T20:16:10.295Z,40.33
2022-09-30T20:18:41.221Z,42.40
2022-09-30T20:21:12.036Z,39.50
2022-09-30T20:23:42.194Z,42.15
2022-09-30T20:26:15.516Z,43.95
2022-09-30T20:28:47.004Z,42.92
2022-09-30T20:31:17.275Z,40.30
2022-09-30T20:33:47.083Z,41.47
2022-09-30T20:36:16.544Z,43.42
2022-09-30T20:38:50.305Z,46.47
2022-09-30T20:41:21.192Z,39.05
2022-09-30T20:43:53.394Z,40.03
2022-09-30T20:46:25.967Z,34.50
2022-09-30T20:48:55.341Z,36.22
2022-09-30T20:51:24.929Z,33.65
2022-09-30T20:53:55.365Z,38.60
2022-09-30T20:56:28.564Z,38.90
2022-09-30T20:59:02.480Z,35.85
2022-09-30T21:01:31.924Z,39.45
2022-09-30T21:04:01.472Z,33.83
2022-09-30T21:06:31.498Z,38.85
2022-09-30T21:09:03.760Z,32.83
2022-09-30T21:11:35.300Z,31.17
2022-09-30T21:14:05.963Z,32.97
2022-09-30T21:16:35.313Z,30.38
2022-09-30T21:19:04.645Z,34.90
2022-09-30T21:21:34.182Z,29.70
2022-09-30T21:24:04.082Z,32.35
2022-09-30T21:26:36.675Z,30.92
2022-09-30T21:29:06.259Z,30.08
2022-09-30T21:31:37.935Z,32.00
2022-09-30T21:34:07.449Z,34.50
2022-09-30T21:36:36.530Z,36.67
2022-09-30T21:39:05.807Z,28.95
2022-09-30T21:41:36.774Z,28.70
2022-09-30T21:44:06.042Z,25.65
2022-09-30T21:46:35.786Z,31.20
2022-09-30T21:49:07.422Z,28.02
2022-09-30T21:51:36.706Z,30.70
2022-09-30T21:54:06.034Z,32.13
2022-09-30T21:56:37.077Z,28.33
2022-09-30T21:59:06.562Z,29.67
2022-09-30T22:01:37.537Z,29.15
2022-09-30T22:04:07.201Z,29.50
2022-09-30T22:06:36.567Z,28.15
2022-09-30T22:09:06.127Z,26.70
2022-09-30T22:11:37.177Z,27.42
2022-09-30T22:14:06.769Z,27.30
2022-09-30T22:16:36.407Z,30.15
2022-09-30T22:19:09.010Z,30.83
2022-09-30T22:21:39.188Z,32.17
2022-09-30T22:24:10.410Z,28.67
2022-09-30T22:26:42.586Z,28.85
2022-09-30T22:29:12.917Z,25.08
2022-09-30T22:31:42.067Z,29.58
2022-09-30T22:34:32.291Z,25.23
2022-09-30T22:37:19.101Z,28.70
2022-09-30T22:39:48.464Z,25.45
2022-09-30T22:42:19.374Z,30.67
2022-09-30T22:44:49.772Z,39.33
2022-09-30T22:47:19.214Z,44.67
2022-09-30T22:49:48.390Z,52.42
2022-09-30T22:52:17.335Z,48.38
2022-09-30T22:54:46.552Z,48.35
2022-09-30T22:57:16.308Z,33.90
2022-09-30T22:59:47.637Z,45.65
2022-09-30T23:02:17.256Z,56.13
2022-09-30T23:04:47.032Z,56.58
2022-09-30T23:07:16.192Z,47.50
2022-09-30T23:09:45.537Z,41.75
2022-09-30T23:12:14.874Z,41.97
2022-09-30T23:14:45.493Z,34.70
2022-09-30T23:17:14.732Z,40.78
2022-09-30T23:19:43.892Z,35.80
2022-09-30T23:22:13.517Z,36.55
2022-09-30T23:24:42.892Z,36.45
2022-09-30T23:27:12.057Z,32.85
2022-09-30T23:29:41.128Z,36.00
2022-09-30T23:32:11.855Z,31.73
2022-09-30T23:34:41.110Z,30.00
2022-09-30T23:37:10.257Z,41.60
2022-09-30T23:39:40.874Z,36.78
2022-09-30T23:42:10.010Z,38.80
2022-09-30T23:44:39.368Z,33.67
2022-09-30T23:47:19.197Z,39.85
2022-09-30T23:49:48.721Z,32.97
2022-09-30T23:52:18.084Z,32.95
2022-09-30T23:54:47.487Z,100.40
2022-09-30T23:57:16.560Z,68.32
2022-09-30T23:59:45.876Z,81.65
